Hunt Field
KLND : rendu visible

Aérodrome :











RETROUVEZ-NOUS SUR...

 
LOGIN :

S'inscrire | Disclaimer

   EN    FR    IT 

 









Légende :    VFR   VFR Marginal   IFR   IFR Intensif   IFR Très Intensif
Visi : 
Plafond : 
>= 8 km
>= 3000ft
5 à 8 km
1000 à 3000 ft
1500m à 5 km
500 à 1000 ft
800 à 1500m
200 à 500 ft
< 800m
< 200 ft
Symboles :   Orages  Brouillard  Fortes neiges  Fortes précipitations  Vent > 20 kt






- Altitude de l'aérodrome : 5586 ft


KLND - Hunt Field

DERNIER METAR :
  • 250653Z AUTO 31004KT 10SM CLR M01/M06 A2995 RMK AO2 SLP169 T10111056 400111083

METARs EXPIRÉS :
  • 250553Z AUTO 00000KT 10SM CLR M02/M06 A2995 RMK AO2 SLP165 T10221061 11011 21039 51003
  • 250453Z AUTO 13003KT 10SM CLR M02/M06 A2995 RMK AO2 SLP171 T10221056

TAF KLND
Valide du 25 à 06h jusqu'au 26 à 06h UTC


250523Z 2506/2606 VRB05KT P6SM SCT090
FM252300 VRB04KT P6SM FEW090



MET'MAP, la Météo Aéronautique d'un coup d'oeil ! - Copyright ORBIFLY Décembre 2007 - Disclaimer

ORBIFLY MET'MAP TEAM :

Programmation & Développement : Alexandra Zaïnal
Sur une idée originale de : Baudouin d'Aumeries
Assistance à la programmation : Marc-Olivier Méhu
Soutien technique & logistique : Manuel Goepfert

Contact : metmap@orbifly.com




SOURCES & CREDITS :

   NOAA       Earth
Advisory